Time;durP1;ratioP1;P1;durP2;ratioP2;P2;SDS_P1;SDS_P2;PMS_P1;PMS_P2;Temp;Humidity;BMP_temperature;BMP_pressure;BME280_temperature;BME280_humidity;BME280_pressure;Samples;Min_cycle;Max_cycle;Signal;HPM_P1;HPM_P2
2022/12/13 00:02:37;;;;;;;0.20;0.03;;;12.90;99.90;;;;;;20944842;28;20416;-73
2022/12/13 00:12:43;;;;;;;0.20;0.00;;;12.80;99.90;;;;;;20924955;28;20430;-74
2022/12/13 00:22:47;;;;;;;0.20;0.10;;;12.90;99.90;;;;;;20928213;28;20399;-75
2022/12/13 00:33:43;;;;;;;0.20;0.10;;;13.30;99.90;;;;;;20943039;28;20418;-74
2022/12/13 00:43:48;;;;;;;0.20;0.00;;;13.40;99.90;;;;;;20939245;28;20433;-74
2022/12/13 00:53:52;;;;;;;0.20;0.10;;;13.40;99.90;;;;;;20942298;28;20403;-74
2022/12/13 01:03:59;;;;;;;0.20;0.10;;;13.40;99.90;;;;;;20942529;28;20410;-73
2022/12/13 01:14:03;;;;;;;0.20;0.07;;;13.50;99.90;;;;;;20959349;28;20769;-75
2022/12/13 01:24:09;;;;;;;0.20;0.10;;;13.40;99.90;;;;;;20920237;28;20471;-73
2022/12/13 01:34:14;;;;;;;0.20;0.10;;;13.00;99.90;;;;;;20938879;28;20403;-73
2022/12/13 01:45:07;;;;;;;0.20;0.10;;;12.60;99.90;;;;;;20942348;28;20414;-73
2022/12/13 01:55:15;;;;;;;0.20;0.00;;;12.30;99.90;;;;;;20840046;28;20402;-73
2022/12/13 02:05:26;;;;;;;0.20;0.03;;;12.10;99.90;;;;;;20941088;28;20417;-73
2022/12/13 02:15:44;;;;;;;0.20;0.10;;;11.90;99.90;;;;;;20938618;28;20562;-73
2022/12/13 02:26:07;;;;;;;0.20;0.00;;;11.50;99.90;;;;;;20940237;28;20416;-74
2022/12/13 02:36:18;;;;;;;0.20;0.10;;;11.30;99.90;;;;;;20940227;28;20406;-74
2022/12/13 02:46:26;;;;;;;0.20;0.10;;;10.60;99.90;;;;;;20952514;28;20406;-74
2022/12/13 02:56:33;;;;;;;0.20;0.10;;;10.20;99.90;;;;;;20940541;28;20761;-73
2022/12/13 03:06:49;;;;;;;0.20;0.10;;;9.70;99.90;;;;;;20936899;28;21358;-73
2022/12/13 03:16:56;;;;;;;0.20;0.10;;;9.50;99.90;;;;;;20937460;28;20409;-72
2022/12/13 03:27:00;;;;;;;0.20;0.10;;;9.50;99.90;;;;;;20953797;28;20440;-73
2022/12/13 03:37:05;;;;;;;0.20;0.10;;;9.40;99.90;;;;;;20946073;28;20422;-72
2022/12/13 03:47:09;;;;;;;0.20;0.10;;;9.30;99.90;;;;;;20951452;28;20428;-72
2022/12/13 03:57:15;;;;;;;0.20;0.10;;;9.20;99.90;;;;;;20950637;28;20438;-73
2022/12/13 04:07:19;;;;;;;0.20;0.00;;;9.10;99.90;;;;;;20948116;28;20414;-74
2022/12/13 04:17:26;;;;;;;0.20;0.10;;;8.90;99.90;;;;;;20949485;28;20441;-73
2022/12/13 04:27:30;;;;;;;0.20;0.00;;;8.80;99.90;;;;;;20946255;28;20426;-73
2022/12/13 04:37:35;;;;;;;0.20;0.10;;;9.20;99.90;;;;;;20946838;28;20480;-73
2022/12/13 04:47:39;;;;;;;0.20;0.07;;;9.40;99.90;;;;;;20944678;28;20414;-75
2022/12/13 04:57:46;;;;;;;0.20;0.00;;;9.50;99.90;;;;;;20943568;28;20516;-75
2022/12/13 05:07:49;;;;;;;0.20;0.10;;;9.60;99.90;;;;;;20943388;28;20406;-74
2022/12/13 05:17:55;;;;;;;0.20;0.10;;;9.90;99.90;;;;;;20944361;28;20421;-75
2022/12/13 05:27:59;;;;;;;0.20;0.00;;;9.70;99.90;;;;;;20942192;28;20412;-74
2022/12/13 05:38:12;;;;;;;0.20;0.10;;;9.80;99.90;;;;;;20938420;28;20401;-75
2022/12/13 05:48:17;;;;;;;0.20;0.10;;;9.70;99.90;;;;;;20941111;28;20971;-74
2022/12/13 05:58:28;;;;;;;0.20;0.00;;;9.40;99.90;;;;;;20937279;28;20390;-73
2022/12/13 06:08:39;;;;;;;0.20;0.00;;;9.50;99.90;;;;;;20937482;28;20410;-73
2022/12/13 06:18:44;;;;;;;0.20;0.10;;;9.30;99.90;;;;;;20939703;28;20398;-73
2022/12/13 06:28:52;;;;;;;0.20;0.00;;;9.30;99.90;;;;;;20938576;28;20409;-73
2022/12/13 06:39:02;;;;;;;0.20;0.10;;;9.20;99.90;;;;;;20931258;28;20399;-74
2022/12/13 06:49:06;;;;;;;0.20;0.00;;;9.20;99.90;;;;;;20934550;28;21307;-73
2022/12/13 06:59:12;;;;;;;0.20;0.10;;;9.40;99.90;;;;;;20945191;28;20424;-70
2022/12/13 07:09:16;;;;;;;0.20;0.10;;;9.60;99.90;;;;;;20948009;28;20423;-73
2022/12/13 07:19:21;;;;;;;0.20;0.00;;;9.70;99.90;;;;;;20950375;28;20402;-80
2022/12/13 07:29:27;;;;;;;0.20;0.00;;;10.00;99.90;;;;;;20950095;28;20743;-73
2022/12/13 07:39:32;;;;;;;0.20;0.10;;;9.90;99.90;;;;;;20949507;28;20737;-73
2022/12/13 07:49:37;;;;;;;0.20;0.10;;;10.20;99.90;;;;;;20948920;28;20410;-70
2022/12/13 07:59:42;;;;;;;0.20;0.00;;;10.10;99.90;;;;;;20946642;28;20390;-72
2022/12/13 08:09:46;;;;;;;0.20;0.00;;;10.60;99.90;;;;;;20943159;28;20414;-72
2022/12/13 08:19:57;;;;;;;0.20;0.00;;;11.00;99.90;;;;;;20946785;28;20876;-75
2022/12/13 08:30:00;;;;;;;0.20;0.10;;;11.10;99.90;;;;;;20943086;28;20406;-68
2022/12/13 08:40:07;;;;;;;0.20;0.00;;;11.20;99.90;;;;;;20945495;28;21268;-72
2022/12/13 08:50:11;;;;;;;0.20;0.07;;;11.50;99.90;;;;;;20923490;28;20742;-74
2022/12/13 09:00:21;;;;;;;0.20;0.00;;;12.00;99.90;;;;;;20944475;28;20501;-73
2022/12/13 09:10:25;;;;;;;0.20;0.10;;;12.20;99.90;;;;;;20940389;28;20417;-74
2022/12/13 09:20:31;;;;;;;0.20;0.10;;;12.30;99.90;;;;;;20937652;28;20393;-70
2022/12/13 09:30:44;;;;;;;0.20;0.10;;;12.70;99.90;;;;;;20921357;28;20411;-74
2022/12/13 09:40:53;;;;;;;0.20;0.10;;;13.20;99.90;;;;;;20936582;28;20429;-72
2022/12/13 09:51:02;;;;;;;0.20;0.10;;;13.60;99.90;;;;;;20936122;28;20726;-74
2022/12/13 10:01:23;;;;;;;0.20;0.00;;;13.90;99.90;;;;;;20938485;28;20770;-72
2022/12/13 10:11:29;;;;;;;0.20;0.00;;;14.10;99.90;;;;;;20935644;28;20459;-73
2022/12/13 10:21:40;;;;;;;0.20;0.00;;;14.20;99.90;;;;;;20916382;28;20445;-73
2022/12/13 10:31:46;;;;;;;0.20;0.00;;;14.10;99.90;;;;;;20945046;28;20649;-73
2022/12/13 10:42:03;;;;;;;0.20;0.00;;;14.50;99.90;;;;;;20949229;28;20483;-73
2022/12/13 10:52:20;;;;;;;0.20;0.00;;;14.30;99.90;;;;;;20949405;28;20406;-74
2022/12/13 11:02:37;;;;;;;0.20;0.05;;;14.00;99.90;;;;;;20946220;28;20394;-74
2022/12/13 11:12:42;;;;;;;0.20;0.10;;;14.00;99.90;;;;;;20948529;28;20440;-72
2022/12/13 11:22:48;;;;;;;0.20;0.10;;;14.20;99.90;;;;;;20946356;28;20425;-73
2022/12/13 11:33:14;;;;;;;0.20;0.10;;;14.30;99.90;;;;;;20951033;28;20410;-71
2022/12/13 11:43:26;;;;;;;0.20;0.00;;;14.50;99.90;;;;;;20929163;28;20872;-68
2022/12/13 11:53:34;;;;;;;0.20;0.00;;;14.70;99.90;;;;;;20923603;28;20414;-72
2022/12/13 12:03:45;;;;;;;0.20;0.10;;;14.90;99.90;;;;;;20946653;28;20493;-71
2022/12/13 12:13:53;;;;;;;0.20;0.10;;;14.80;99.90;;;;;;20945388;28;20410;-74
2022/12/13 12:24:09;;;;;;;0.20;0.00;;;15.30;99.90;;;;;;20942385;28;20401;-73
2022/12/13 12:34:21;;;;;;;0.20;0.00;;;15.50;99.90;;;;;;20942582;28;20407;-73
2022/12/13 12:44:40;;;;;;;0.20;0.10;;;15.50;99.90;;;;;;20945097;28;20406;-68
2022/12/13 12:54:51;;;;;;;0.20;0.00;;;16.20;99.90;;;;;;20942653;28;20777;-73
2022/12/13 13:05:02;;;;;;;0.20;0.10;;;15.80;99.90;;;;;;20940979;28;20402;-74
2022/12/13 13:15:39;;;;;;;0.20;0.10;;;15.70;99.90;;;;;;20941310;28;20424;-72
2022/12/13 13:25:55;;;;;;;0.20;0.00;;;15.90;99.90;;;;;;20941157;28;20543;-72
2022/12/13 13:36:47;;;;;;;0.20;0.10;;;16.00;99.90;;;;;;20937883;28;20480;-74
2022/12/13 13:47:16;;;;;;;0.20;0.10;;;15.60;99.90;;;;;;20936343;28;20459;-74
2022/12/13 13:57:52;;;;;;;0.20;0.00;;;15.40;99.90;;;;;;20939984;28;20401;-73
2022/12/13 14:19:14;;;;;;;0.20;0.10;;;15.40;99.90;;;;;;21128615;27;20449;-72
2022/12/13 14:29:24;;;;;;;0.20;0.00;;;14.90;99.90;;;;;;21093948;28;20811;-73
2022/12/13 14:39:29;;;;;;;0.20;0.00;;;14.70;99.90;;;;;;21094644;28;20408;-75
2022/12/13 14:49:38;;;;;;;0.20;0.00;;;14.40;99.90;;;;;;21092567;28;20889;-72
2022/12/13 14:59:46;;;;;;;0.20;0.00;;;14.50;99.90;;;;;;21076056;28;20398;-73
2022/12/13 15:09:57;;;;;;;0.20;0.00;;;14.60;99.90;;;;;;21090612;28;21131;-67
2022/12/13 15:20:11;;;;;;;0.20;0.10;;;14.50;99.90;;;;;;21086923;28;20399;-73
2022/12/13 15:30:17;;;;;;;0.20;0.00;;;14.60;99.90;;;;;;21016709;28;20934;-72
2022/12/13 15:40:21;;;;;;;0.20;0.00;;;14.60;99.90;;;;;;21011959;28;20409;-72
2022/12/13 15:50:35;;;;;;;0.20;0.10;;;14.40;99.90;;;;;;21017125;28;20427;-72
2022/12/13 16:00:48;;;;;;;0.20;0.10;;;14.30;99.90;;;;;;21005857;28;20464;-71
2022/12/13 16:10:55;;;;;;;0.20;0.10;;;14.10;99.90;;;;;;21024869;28;20396;-72
2022/12/13 16:20:59;;;;;;;0.20;0.00;;;14.30;99.90;;;;;;21021517;28;20415;-74
2022/12/13 16:31:15;;;;;;;0.20;0.10;;;14.20;99.90;;;;;;21021503;28;20419;-73
2022/12/13 16:41:20;;;;;;;0.20;0.00;;;14.10;99.90;;;;;;21016549;28;20400;-72
2022/12/13 16:51:26;;;;;;;0.20;0.10;;;14.00;99.90;;;;;;20993972;28;20404;-70
2022/12/13 17:01:31;;;;;;;0.20;0.10;;;13.90;99.90;;;;;;21016208;28;20393;-73
2022/12/13 17:11:37;;;;;;;0.20;0.10;;;13.90;99.90;;;;;;21014819;28;20756;-73
2022/12/13 17:21:41;;;;;;;0.20;0.10;;;13.80;99.90;;;;;;21016872;28;20404;-73
2022/12/13 17:31:47;;;;;;;0.20;0.03;;;13.80;99.90;;;;;;21014468;28;20422;-74
2022/12/13 17:41:50;;;;;;;0.20;0.00;;;13.80;99.90;;;;;;21016487;28;20391;-71
2022/12/13 17:51:59;;;;;;;0.20;0.08;;;13.70;99.90;;;;;;21001528;28;20407;-74
2022/12/13 18:02:03;;;;;;;0.20;0.10;;;13.80;99.90;;;;;;21017724;28;20404;-75
2022/12/13 18:12:09;;;;;;;0.20;0.10;;;13.50;99.90;;;;;;21014492;28;20415;-72
2022/12/13 18:22:14;;;;;;;0.20;0.10;;;13.70;99.90;;;;;;21012537;28;20393;-73
2022/12/13 18:32:19;;;;;;;0.20;0.10;;;13.70;99.90;;;;;;20996221;28;20404;-75
2022/12/13 18:42:23;;;;;;;0.20;0.10;;;13.60;99.90;;;;;;21016864;28;20407;-73
2022/12/13 18:52:28;;;;;;;0.20;0.07;;;13.80;99.90;;;;;;21017900;28;20419;-72
2022/12/13 19:02:32;;;;;;;0.20;0.00;;;13.80;99.90;;;;;;21026285;28;20397;-73
2022/12/13 19:12:39;;;;;;;0.20;0.10;;;13.70;99.90;;;;;;21031345;28;20455;-73
2022/12/13 19:22:43;;;;;;;0.20;0.00;;;13.60;99.90;;;;;;21027509;28;20687;-73
2022/12/13 19:32:48;;;;;;;0.20;0.00;;;13.60;99.90;;;;;;21028373;28;20774;-72
2022/12/13 19:42:52;;;;;;;0.20;0.10;;;13.70;99.90;;;;;;21029087;28;20403;-73
2022/12/13 19:52:57;;;;;;;0.20;0.10;;;13.50;99.90;;;;;;21028267;28;20409;-75
2022/12/13 20:03:02;;;;;;;0.20;0.10;;;13.70;99.90;;;;;;21031767;28;20396;-75
2022/12/13 20:13:08;;;;;;;0.20;0.00;;;13.80;99.90;;;;;;21009739;28;20424;-75
2022/12/13 20:23:13;;;;;;;0.20;0.10;;;13.70;99.90;;;;;;21010389;28;20503;-74
2022/12/13 20:33:18;;;;;;;0.20;0.10;;;13.80;99.90;;;;;;21025110;28;20408;-75
2022/12/13 20:43:22;;;;;;;0.20;0.10;;;13.90;99.90;;;;;;21026711;28;20691;-74
2022/12/13 20:53:31;;;;;;;0.20;0.10;;;13.50;99.90;;;;;;21024546;28;20420;-74
2022/12/13 21:03:35;;;;;;;0.20;0.00;;;13.30;99.90;;;;;;21004981;28;20399;-75
2022/12/13 21:13:40;;;;;;;0.20;0.10;;;13.40;99.90;;;;;;21021952;28;20419;-75
2022/12/13 21:23:44;;;;;;;0.20;0.10;;;13.20;99.90;;;;;;21023541;28;20445;-74
2022/12/13 21:33:51;;;;;;;0.20;0.10;;;13.50;99.90;;;;;;21019987;28;20412;-75
2022/12/13 21:43:55;;;;;;;0.20;0.07;;;13.40;99.90;;;;;;21016983;28;20403;-77
2022/12/13 21:54:00;;;;;;;0.20;0.10;;;12.80;99.90;;;;;;21020643;28;21292;-76
2022/12/13 22:04:04;;;;;;;0.20;0.10;;;13.10;99.90;;;;;;21005116;28;20411;-75
2022/12/13 22:14:10;;;;;;;0.20;0.00;;;12.90;99.90;;;;;;20991445;28;20412;-75
2022/12/13 22:24:15;;;;;;;0.20;0.10;;;12.90;99.90;;;;;;21016214;28;20384;-75
2022/12/13 22:34:20;;;;;;;0.20;0.10;;;13.10;99.90;;;;;;21025119;28;20400;-73
2022/12/13 22:44:24;;;;;;;0.20;0.10;;;13.00;99.90;;;;;;21032421;28;20424;-73
2022/12/13 22:54:29;;;;;;;0.20;0.00;;;13.30;99.90;;;;;;21015222;28;20424;-73
2022/12/13 23:04:33;;;;;;;0.20;0.00;;;13.40;99.90;;;;;;21034359;28;20407;-74
2022/12/13 23:14:38;;;;;;;0.20;0.10;;;13.20;99.90;;;;;;21033578;28;20817;-75
2022/12/13 23:24:43;;;;;;;0.20;0.00;;;13.10;99.90;;;;;;21032473;28;20443;-74
2022/12/13 23:34:49;;;;;;;0.20;0.10;;;13.10;99.90;;;;;;21029134;28;20396;-73
2022/12/13 23:44:53;;;;;;;0.20;0.00;;;12.90;99.90;;;;;;21030984;28;20404;-72
2022/12/13 23:54:59;;;;;;;0.20;0.10;;;12.70;99.90;;;;;;21026886;28;20400;-71
